Flight Track Log - Related Links

Times and Time Zones

All times are in EDT time to prevent confusion due to time zone crossing. See the N479SA flight status page for this flight to view local times or setup timezone preferences in your user account.

Time Position Orientation Groundspeed Altitude Reporting Facility
EDT Latitude Longitude Course Direction KTS MPH feet Rate Location/Type
Mon 11:17:09 AM 45.9317 -86.0372 151° Southeast 108 124 5,500  Level Minneapolis Center
Mon 11:18:11 AM 45.8875 -86.0417 184° South 123 142 7,000 1,258 Climbing Minneapolis Center
Mon 11:19:13 AM 45.8492 -86.0408 179° South 131 151 8,100 1,171 Climbing Minneapolis Center
Mon 11:20:14 AM 45.8039 -86.0406 180° South 134 154 9,400 1,122 Climbing Minneapolis Center
Mon 11:21:00 AM 45.8691 -85.7123 106° East  Level FlightAware Approximate
Mon 11:21:16 AM 45.7647 -86.0411 181° South 137 158 10,400  Level Minneapolis Center
Mon 11:22:18 AM 45.7233 -86.0403 179° South 143 165 11,100 339 Climbing Minneapolis Center
Mon 11:23:20 AM 45.6714 -86.0403 180° South 164 189 11,100  Level Minneapolis Center
Mon 11:24:21 AM 45.6158 -86.0411 181° South 186 214 11,100  Level Minneapolis Center
Mon 11:25:23 AM 45.5608 -86.0408 180° South 194 223 11,100  Level Minneapolis Center
Mon 11:26:25 AM 45.5067 -86.0403 180° South 196 226 11,100  Level Minneapolis Center
Mon 11:27:26 AM 45.4414 -86.0383 179° South 195 224 11,100 -49 Level Minneapolis Center
Mon 11:28:28 AM 45.3872 -86.0358 178° South 195 224 11,000 -48 Descending Minneapolis Center
Mon 11:29:30 AM 45.3339 -86.0375 181° South 194 223 11,000  Level Minneapolis Center
Mon 11:30:32 AM 45.2789 -86.0375 180° South 195 224 11,000  Level Minneapolis Center
Mon 11:31:33 AM 45.2244 -86.0367 179° South 195 224 11,000  Level Minneapolis Center
Mon 11:32:35 AM 45.1694 -86.0364 180° South 198 228 11,000  Level Minneapolis Center
Mon 11:33:37 AM 45.1158 -86.0358 180° South 194 223 11,000  Level Minneapolis Center
Mon 11:34:39 AM 45.0525 -86.0367 181° South 191 220 11,000  Level Minneapolis Center
Mon 11:35:53 AM 44.9986 -86.0367 180° South 194 223 11,000  Level Minneapolis Center
Mon 11:36:55 AM 44.9369 -86.0356 179° South 188 216 11,000  Level Minneapolis Center
Mon 11:37:56 AM 44.8847 -86.0356 180° South 188 216 11,000  Level Minneapolis Center
Mon 11:38:58 AM 44.8328 -86.0353 180° South 186 214 11,000  Level Minneapolis Center
Mon 11:40:00 AM 44.7839 -86.0356 180° South 186 214 11,000  Level Minneapolis Center
Mon 11:41:02 AM 44.7258 -86.0353 180° South 184 212 11,000  Level Minneapolis Center
Mon 11:42:04 AM 44.6753 -86.0356 180° South 182 209 11,000  Level Minneapolis Center
Mon 11:43:05 AM 44.6231 -86.0356 180° South 187 215 11,000  Level Minneapolis Center
Mon 11:44:07 AM 44.5728 -86.0361 180° South 182 209 11,000  Level Minneapolis Center
Mon 11:45:09 AM 44.5100 -86.0353 179° South 187 215 11,000  Level Minneapolis Center
Mon 11:46:11 AM 44.4594 -86.0361 181° South 183 211 11,000  Level Minneapolis Center
Mon 11:47:13 AM 44.4097 -86.0344 179° South 180 207 11,000  Level Minneapolis Center
Mon 11:48:14 AM 44.3608 -86.0361 181° South 178 205 11,000  Level Minneapolis Center
Mon 11:49:16 AM 44.3186 -86.0000 149° Southeast 183 211 11,000  Level Minneapolis Center
Mon 11:50:18 AM 44.2786 -85.9558 142° Southeast 184 212 11,000  Level Minneapolis Center
Mon 11:51:20 AM 44.2269 -85.9064 146° Southeast 188 216 11,000  Level Minneapolis Center
Mon 11:52:22 AM 44.1836 -85.8669 147° Southeast 187 215 11,000  Level Minneapolis Center
Mon 11:53:23 AM 44.1411 -85.8236 144° Southeast 189 217 11,000  Level Minneapolis Center
Mon 11:54:25 AM 44.0972 -85.7856 148° Southeast 187 215 11,000  Level Minneapolis Center
Mon 11:55:27 AM 44.0511 -85.7417 146° Southeast 187 215 11,000  Level Minneapolis Center
Mon 11:56:29 AM 44.0092 -85.7031 146° Southeast 184 212 11,000  Level Minneapolis Center
Mon 11:57:31 AM 43.9667 -85.6631 146° Southeast 183 211 11,000  Level Minneapolis Center
Mon 11:58:33 AM 43.9247 -85.6247 147° Southeast 183 211 11,000  Level Minneapolis Center
Mon 11:59:35 AM 43.8825 -85.5853 146° Southeast 183 211 11,000  Level Minneapolis Center
Mon 12:00:38 PM 43.8328 -85.5386 146° Southeast 181 208 11,000 48 Level Minneapolis Center
Mon 12:01:40 PM 43.7903 -85.4994 146° Southeast 182 209 11,100 48 Climbing Minneapolis Center
Mon 12:02:42 PM 43.7481 -85.4614 147° Southeast 183 211 11,100  Level Minneapolis Center
Mon 12:03:44 PM 43.7061 -85.4222 146° Southeast 181 208 11,100 -48 Level Minneapolis Center
Mon 12:04:46 PM 43.6625 -85.3814 146° Southeast 187 215 11,000 -48 Descending Minneapolis Center
Mon 12:05:48 PM 43.6189 -85.3406 146° Southeast 189 217 11,000 -97 Level Minneapolis Center
Mon 12:06:50 PM 43.5750 -85.3022 148° Southeast 187 215 10,800 -457 Descending Minneapolis Center
Mon 12:07:20 PM 43.5469 -85.2758 146° Southeast 197 227 10,300 -1,000 Descending Chicago Center

Login

Don't have an account? Register now (free) for customized features, flight alerts, and more!